• Join FlightAware (Why Join?)
  • Login
  • US Flag 
01:24PM EDT


 

Airport Tracker/Info


-or-


 

Live Flight TrackerFlight Track Log ✈ DAL6234 ✈ 18-Apr-2013 ✈ KSYR - KLGA

Flight Track Log - Related Links

Times and Time Zones

All times are in EDT time to prevent confusion due to time zone crossing. See the DAL6234 flight status page for this flight to view local times or setup timezone preferences in your user account.

Time Position Orientation Groundspeed Altitude Reporting Facility
EDT Latitude Longitude Course Direction KTS MPH feet Rate Location/Type
06:57PM 43.1067 -76.0978 128° Southeast 150 173 1,000  Level Boston Center
06:57PM 43.0947 -76.0769 128° Southeast 153 176 2,600 2,760 Climbing Boston Center
06:58PM 43.0792 -76.0419 121° Southeast 194 223 4,200 2,100 Climbing Boston Center
06:59PM 43.0289 -75.9822 139° Southeast 217 250 6,000 1,980 Climbing Boston Center
07:00PM 42.9850 -75.9228 135° Southeast 245 282 8,100 2,400 Climbing Boston Center
07:01PM 42.9108 -75.8253 136° Southeast 285 328 10,900 2,100 Climbing Boston Center
07:02PM 42.8425 -75.7336 135° Southeast 321 369 12,300 1,860 Climbing Boston Center
07:03PM 42.7661 -75.6361 137° Southeast 351 404 14,700 2,460 Climbing Boston Center
07:04PM 42.6956 -75.5450 136° Southeast 359 413 17,800 1,440 Climbing Boston Center
07:05PM 42.6150 -75.4392 136° Southeast 348 400 18,000 60 Climbing Boston Center
07:06PM 42.5628 -75.3719 137° Southeast 338 389 18,000  Level Boston Center
07:07PM 42.4778 -75.2636 137° Southeast 338 389 18,000  Level Boston Center
07:08PM 42.4289 -75.1378 118° Southeast 363 418 18,000  Level Boston Center
07:09PM 42.3797 -75.0064 117° Southeast 372 428 18,000  Level Boston Center
07:10PM 42.3306 -74.8750 117° Southeast 383 441 18,000  Level Boston Center
07:11PM 42.2853 -74.7497 116° Southeast 383 441 18,000  Level Boston Center
07:12PM 42.2375 -74.6247 117° Southeast 378 435 18,000  Level Boston Center
07:13PM 42.1922 -74.4969 116° Southeast 371 427 18,000  Level Boston Center
07:14PM 42.1442 -74.3722 117° Southeast 377 434 18,000  Level Boston Center
07:15PM 42.1003 -74.2589 118° Southeast 377 434 18,000  Level Boston Center
07:16PM 42.0375 -74.1342 124° Southeast 377 434 18,000  Level Boston Center
07:17PM 41.9808 -74.0181 123° Southeast 367 422 18,000 -300 Level Boston Center
07:18PM 41.9281 -73.9164 125° Southeast 367 422 17,500 -1,080 Descending Boston Center
07:19PM 41.8503 -73.8169 136° Southeast 360 414 15,900 -1,500 Descending Boston Center
07:20PM 41.7669 -73.8094 176° South 320 368 14,600 -1,260 Descending Boston Center
07:21PM 41.6753 -73.8075 179° South 314 361 13,400 -1,140 Descending Boston Center
07:23PM 41.5500 -73.8000 177° South 272 313 11,700 -1,140 Descending New York TRACON
07:24PM 41.4833 -73.8000 180° South 259 298 10,500 -1,440 Descending New York TRACON
07:25PM 41.4000 -73.8000 180° South 254 292 8,800 -1,200 Descending New York TRACON
07:26PM 41.3500 -73.8000 180° South 220 253 8,200 -660 Descending New York TRACON
07:27PM 41.3000 -73.7500 143° Southeast 206 237 7,500 -960 Descending New York TRACON
07:28PM 41.2833 -73.6833 108° East 193 222 6,300 -1,320 Descending New York TRACON
07:29PM 41.2500 -73.6167 124° Southeast 199 229 4,900 -1,140 Descending New York TRACON
07:30PM 41.2333 -73.5500 108° East 213 245 4,100 -480 Descending New York TRACON
07:31PM 41.2833 -73.5167 27° Northeast 214 246 4,000  Descending New York TRACON
07:32PM 41.2667 -73.5667 246° West 165 190 4,100  Climbing New York TRACON
07:33PM 41.2333 -73.5833 201° Southwest 163 188 4,100  Level New York TRACON
07:34PM 41.1833 -73.6167 207° Southwest 164 189 4,100  Level New York TRACON
07:35PM 41.1500 -73.6333 201° Southwest 164 189 4,100  Level New York TRACON
07:36PM 41.1000 -73.6333 180° South 172 198 4,100  Level New York TRACON
07:37PM 41.0500 -73.6500 194° South 165 190 4,100 -180 Level New York TRACON
07:38PM 41.0167 -73.6833 217° Southwest 151 174 3,800 -540 Descending New York TRACON
07:39PM 40.9833 -73.7000 201° Southwest 158 182 3,100 -420 Descending New York TRACON
07:40PM 40.9500 -73.7333 217° Southwest 153 176 3,100  Level New York TRACON
07:41PM 40.9167 -73.7667 217° Southwest 155 178 3,100 -420 Level New York TRACON
07:42PM 40.8833 -73.8000 217° Southwest 156 180 2,300 -780 Descending New York TRACON
07:43PM 40.8500 -73.8167 201° Southwest 120 138 1,600 -720 Descending New York TRACON
07:44PM 40.8167 -73.8500 217° Southwest 132 152 900 -720 Descending New York TRACON